createdAt,value
2023-05-07T00:01:00.593Z,95816.00
2023-05-07T00:03:47.035Z,95814.00
2023-05-07T00:06:34.180Z,95808.00
2023-05-07T00:09:20.093Z,95808.00
2023-05-07T00:12:09.938Z,95810.00
2023-05-07T00:14:56.962Z,95811.00
2023-05-07T00:17:42.985Z,95812.00
2023-05-07T00:20:29.261Z,95817.00
2023-05-07T00:23:15.892Z,95820.00
2023-05-07T00:26:05.645Z,95826.00
2023-05-07T00:28:51.886Z,95812.00
2023-05-07T00:31:38.178Z,95806.00
2023-05-07T00:34:25.471Z,95803.00
2023-05-07T00:37:13.472Z,95804.00
2023-05-07T00:40:00.662Z,95804.00
2023-05-07T00:42:49.433Z,95790.00
2023-05-07T00:45:36.185Z,95797.00
2023-05-07T00:48:25.534Z,95797.00
2023-05-07T00:51:12.708Z,95792.00
2023-05-07T00:53:58.842Z,95792.00
2023-05-07T00:56:46.329Z,95783.00
2023-05-07T00:59:34.893Z,95780.00
2023-05-07T01:02:22.184Z,95787.00
2023-05-07T01:05:13.138Z,95783.00
2023-05-07T01:08:00.534Z,95784.00
2023-05-07T01:10:47.765Z,95783.00
2023-05-07T01:13:35.793Z,95784.00
2023-05-07T01:16:22.850Z,95775.00
2023-05-07T01:19:14.559Z,95779.00
2023-05-07T01:22:12.648Z,95767.00
2023-05-07T01:25:09.562Z,95774.00
2023-05-07T01:28:03.864Z,95782.00
2023-05-07T01:31:03.828Z,95787.00
2023-05-07T01:33:52.822Z,95788.00
2023-05-07T01:36:41.700Z,95792.00
2023-05-07T01:39:30.231Z,95784.00
2023-05-07T01:42:17.054Z,95788.00
2023-05-07T01:45:07.150Z,95780.00
2023-05-07T01:47:56.839Z,95778.00
2023-05-07T01:50:45.022Z,95788.00
2023-05-07T01:53:38.107Z,95783.00
2023-05-07T01:56:26.798Z,95783.00
2023-05-07T01:59:14.942Z,95786.00
2023-05-07T02:02:01.768Z,95789.00
2023-05-07T02:04:47.978Z,95786.00
2023-05-07T02:07:35.441Z,95776.00
2023-05-07T02:10:22.196Z,95781.00
2023-05-07T02:13:08.432Z,95776.00
2023-05-07T02:15:55.710Z,95778.00
2023-05-07T02:18:43.426Z,95775.00
2023-05-07T02:21:31.540Z,95780.00
2023-05-07T02:24:17.335Z,95784.00
2023-05-07T02:27:04.632Z,95775.00
2023-05-07T02:29:50.557Z,95776.00
2023-05-07T02:32:36.370Z,95775.00
2023-05-07T02:35:22.230Z,95771.00
2023-05-07T02:38:08.427Z,95768.00
2023-05-07T02:40:55.006Z,95765.00
2023-05-07T02:43:41.444Z,95772.00
2023-05-07T02:46:27.375Z,95772.00
2023-05-07T02:49:19.979Z,95770.00
2023-05-07T02:52:07.645Z,95765.00
2023-05-07T02:54:53.604Z,95770.00
2023-05-07T02:57:39.373Z,95767.00
2023-05-07T03:00:26.163Z,95768.00
2023-05-07T03:03:22.828Z,95771.00
2023-05-07T03:06:09.134Z,95770.00
2023-05-07T03:08:54.829Z,95765.00
2023-05-07T03:11:41.141Z,95764.00
2023-05-07T03:14:27.103Z,95765.00
2023-05-07T03:17:13.176Z,95771.00
2023-05-07T03:19:58.886Z,95779.00
2023-05-07T03:22:44.651Z,95768.00
2023-05-07T03:25:34.641Z,95763.00
2023-05-07T03:28:20.508Z,95771.00
2023-05-07T03:31:13.082Z,95776.00
2023-05-07T03:33:59.897Z,95772.00
2023-05-07T03:36:46.098Z,95778.00
2023-05-07T03:39:33.656Z,95779.00
2023-05-07T03:42:20.526Z,95784.00
2023-05-07T03:45:10.354Z,95788.00
2023-05-07T03:47:58.708Z,95787.00
2023-05-07T03:50:44.831Z,95787.00
2023-05-07T03:53:30.724Z,95777.00
2023-05-07T03:56:19.123Z,95791.00
2023-05-07T03:59:06.089Z,95796.00
2023-05-07T04:01:52.119Z,95779.00
2023-05-07T04:04:41.005Z,95783.00
2023-05-07T04:07:27.745Z,95774.00
2023-05-07T04:10:14.655Z,95784.00
2023-05-07T04:13:03.305Z,95774.00
2023-05-07T04:15:50.181Z,95787.00
2023-05-07T04:18:38.200Z,95781.00
2023-05-07T04:21:24.905Z,95778.00
2023-05-07T04:24:11.586Z,95789.00
2023-05-07T04:27:00.138Z,95788.00
2023-05-07T04:29:48.448Z,95784.00
2023-05-07T04:32:37.660Z,95789.00
2023-05-07T04:35:25.482Z,95778.00
2023-05-07T04:38:12.262Z,95784.00
2023-05-07T04:41:04.399Z,95783.00
2023-05-07T04:43:50.824Z,95787.00
2023-05-07T04:46:38.994Z,95787.00
2023-05-07T04:49:25.273Z,95779.00
2023-05-07T04:52:13.566Z,95789.00
2023-05-07T04:55:03.548Z,95793.00
2023-05-07T04:57:57.581Z,95797.00
2023-05-07T05:00:45.090Z,95804.00
2023-05-07T05:03:31.697Z,95797.00
2023-05-07T05:06:18.024Z,95804.00
2023-05-07T05:09:06.506Z,95804.00
2023-05-07T05:11:57.433Z,95806.00
2023-05-07T05:14:46.211Z,95804.00
2023-05-07T05:17:32.202Z,95813.00
2023-05-07T05:20:18.617Z,95817.00
2023-05-07T05:23:09.310Z,95817.00
2023-05-07T05:25:59.784Z,95821.00
2023-05-07T05:28:48.924Z,95817.00
2023-05-07T05:31:37.489Z,95828.00
2023-05-07T05:34:27.674Z,95825.00
2023-05-07T05:37:14.150Z,95826.00
2023-05-07T05:40:03.677Z,95819.00
2023-05-07T05:48:55.732Z,95821.00
2023-05-07T05:51:44.872Z,95815.00
2023-05-07T05:55:06.666Z,95822.00
2023-05-07T05:58:26.389Z,95824.00
2023-05-07T06:03:44.097Z,95829.00
2023-05-07T06:05:46.069Z,95827.00
2023-05-07T06:13:07.503Z,95837.00
2023-05-07T06:15:55.466Z,95837.00
2023-05-07T06:18:44.203Z,95834.00
2023-05-07T06:21:30.200Z,95847.00
2023-05-07T06:24:17.139Z,95830.00
2023-05-07T06:27:06.202Z,95847.00
2023-05-07T06:30:01.983Z,95829.00
2023-05-07T06:32:49.214Z,95838.00
2023-05-07T06:35:35.833Z,95842.00
2023-05-07T06:38:24.720Z,95835.00
2023-05-07T06:41:11.133Z,95843.00
2023-05-07T06:43:58.433Z,95843.00
2023-05-07T06:46:54.052Z,95852.00
2023-05-07T06:49:47.656Z,95844.00
2023-05-07T06:52:37.379Z,95840.00
2023-05-07T06:55:27.290Z,95848.00
2023-05-07T06:58:14.741Z,95855.00
2023-05-07T07:01:03.506Z,95850.00
2023-05-07T07:03:52.822Z,95847.00
2023-05-07T07:06:40.957Z,95853.00
2023-05-07T07:09:30.712Z,95840.00
2023-05-07T07:12:21.215Z,95850.00
2023-05-07T07:15:11.673Z,95842.00
2023-05-07T07:17:58.718Z,95847.00
2023-05-07T07:21:00.594Z,95840.00
2023-05-07T07:23:47.142Z,95855.00
2023-05-07T07:26:34.801Z,95852.00
2023-05-07T07:29:21.599Z,95845.00
2023-05-07T07:32:10.084Z,95840.00
2023-05-07T07:34:56.759Z,95842.00
2023-05-07T07:37:42.910Z,95832.00
2023-05-07T07:40:34.952Z,95832.00
2023-05-07T07:43:27.741Z,95844.00
2023-05-07T07:46:40.632Z,95848.00
2023-05-07T07:49:35.542Z,95845.00
2023-05-07T07:52:30.605Z,95841.00
2023-05-07T07:55:32.694Z,95840.00
2023-05-07T07:58:34.015Z,95854.00
2023-05-07T08:01:25.246Z,95853.00
2023-05-07T08:04:14.784Z,95852.00
2023-05-07T08:07:02.477Z,95855.00
2023-05-07T08:10:22.540Z,95857.00
2023-05-07T08:13:48.383Z,95852.00
2023-05-07T08:21:26.617Z,95860.00
2023-05-07T08:24:29.804Z,95863.00
2023-05-07T08:27:55.862Z,95856.00
2023-05-07T08:30:42.419Z,95862.00
2023-05-07T08:33:29.248Z,95854.00
2023-05-07T08:36:16.406Z,95858.00
2023-05-07T08:39:02.170Z,95860.00
2023-05-07T08:41:53.389Z,95859.00
2023-05-07T08:44:41.056Z,95861.00
2023-05-07T08:47:36.539Z,95860.00
2023-05-07T08:50:23.005Z,95868.00
2023-05-07T08:53:10.600Z,95862.00
2023-05-07T08:55:56.896Z,95863.00
2023-05-07T08:58:45.535Z,95860.00
2023-05-07T09:01:31.891Z,95862.00
2023-05-07T09:04:18.532Z,95863.00
2023-05-07T09:07:06.792Z,95851.00
2023-05-07T09:09:58.166Z,95861.00
2023-05-07T09:16:23.441Z,95862.00
2023-05-07T09:19:10.262Z,95864.00
2023-05-07T09:22:02.169Z,95861.00
2023-05-07T09:24:52.562Z,95852.00
2023-05-07T09:27:43.790Z,95863.00
2023-05-07T09:30:34.913Z,95851.00
2023-05-07T09:33:28.659Z,95855.00
2023-05-07T09:36:15.900Z,95856.00
2023-05-07T09:39:02.948Z,95852.00
2023-05-07T09:41:50.634Z,95849.00
2023-05-07T09:44:45.527Z,95854.00
2023-05-07T09:47:43.043Z,95851.00
2023-05-07T09:50:33.161Z,95850.00
2023-05-07T09:53:20.835Z,95848.00
2023-05-07T09:56:07.191Z,95850.00
2023-05-07T09:58:55.541Z,95858.00
2023-05-07T10:01:46.368Z,95849.00
2023-05-07T10:04:33.993Z,95848.00
2023-05-07T10:07:21.512Z,95852.00
2023-05-07T10:10:09.386Z,95852.00
2023-05-07T10:13:00.389Z,95852.00
2023-05-07T10:15:52.674Z,95847.00
2023-05-07T10:18:40.571Z,95842.00
2023-05-07T10:21:40.388Z,95842.00
2023-05-07T10:24:35.388Z,95843.00
2023-05-07T10:27:25.978Z,95841.00
2023-05-07T10:30:39.910Z,95843.00
2023-05-07T10:33:30.928Z,95840.00
2023-05-07T10:36:19.700Z,95840.00
2023-05-07T10:39:07.967Z,95840.00
2023-05-07T10:41:55.408Z,95845.00
2023-05-07T10:44:41.854Z,95830.00
2023-05-07T10:47:33.444Z,95830.00
2023-05-07T10:50:22.555Z,95826.00
2023-05-07T10:53:20.973Z,95832.00
2023-05-07T10:56:20.217Z,95829.00
2023-05-07T10:59:28.949Z,95831.00
2023-05-07T11:02:17.386Z,95823.00
2023-05-07T11:05:24.577Z,95823.00
2023-05-07T11:08:52.630Z,95825.00
2023-05-07T11:11:54.428Z,95809.00
2023-05-07T11:14:47.171Z,95808.00
2023-05-07T11:17:58.253Z,95811.00
2023-05-07T11:21:00.266Z,95808.00
2023-05-07T11:24:11.345Z,95806.00
2023-05-07T11:27:09.335Z,95810.00
2023-05-07T11:29:57.408Z,95809.00
2023-05-07T11:32:43.925Z,95809.00
2023-05-07T11:35:31.431Z,95812.00
2023-05-07T11:38:22.023Z,95807.00
2023-05-07T11:41:10.012Z,95803.00
2023-05-07T11:44:00.669Z,95807.00
2023-05-07T11:46:47.148Z,95807.00
2023-05-07T11:49:34.155Z,95803.00
2023-05-07T11:52:25.173Z,95801.00
2023-05-07T11:55:15.474Z,95798.00
2023-05-07T11:58:01.383Z,95797.00
2023-05-07T12:00:52.516Z,95798.00
2023-05-07T12:03:44.068Z,95796.00
2023-05-07T12:06:31.419Z,95795.00
2023-05-07T12:09:22.214Z,95792.00
2023-05-07T12:12:21.204Z,95802.00
2023-05-07T12:15:08.462Z,95794.00
2023-05-07T12:17:58.721Z,95797.00
2023-05-07T12:20:51.998Z,95804.00
2023-05-07T12:23:49.855Z,95802.00
2023-05-07T12:26:44.607Z,95798.00
2023-05-07T12:29:34.332Z,95804.00
2023-05-07T12:32:22.502Z,95793.00
2023-05-07T12:35:09.275Z,95797.00
2023-05-07T12:38:05.503Z,95800.00
2023-05-07T12:40:55.687Z,95792.00
2023-05-07T12:43:45.488Z,95787.00
2023-05-07T12:46:32.294Z,95785.00
2023-05-07T12:49:23.770Z,95787.00
2023-05-07T12:52:18.454Z,95783.00
2023-05-07T12:55:15.451Z,95783.00
2023-05-07T12:58:11.461Z,95790.00
2023-05-07T13:01:01.664Z,95787.00
2023-05-07T13:03:51.713Z,95783.00
2023-05-07T13:06:48.687Z,95780.00
2023-05-07T13:09:35.138Z,95784.00
2023-05-07T13:12:21.875Z,95794.00
2023-05-07T13:15:10.848Z,95790.00
2023-05-07T13:17:59.034Z,95790.00
2023-05-07T13:20:44.804Z,95788.00
2023-05-07T13:23:33.207Z,95782.00
2023-05-07T13:29:11.505Z,95776.00
2023-05-07T13:32:01.365Z,95779.00
2023-05-07T13:34:47.602Z,95779.00
2023-05-07T13:37:33.607Z,95783.00
2023-05-07T13:40:22.898Z,95784.00
2023-05-07T13:43:08.916Z,95778.00
2023-05-07T13:45:55.492Z,95783.00
2023-05-07T13:48:41.642Z,95783.00
2023-05-07T13:51:27.437Z,95772.00
2023-05-07T13:54:13.366Z,95772.00
2023-05-07T13:56:59.444Z,95769.00
2023-05-07T13:59:45.309Z,95768.00
2023-05-07T14:02:34.773Z,95772.00
2023-05-07T14:05:20.997Z,95768.00
2023-05-07T14:08:08.917Z,95784.00
2023-05-07T14:10:55.564Z,95766.00
2023-05-07T14:13:41.558Z,95770.00
2023-05-07T14:16:28.552Z,95778.00
2023-05-07T14:19:14.917Z,95782.00
2023-05-07T14:22:03.597Z,95779.00
2023-05-07T14:25:03.270Z,95771.00
2023-05-07T14:27:52.567Z,95762.00
2023-05-07T14:30:38.249Z,95756.00
2023-05-07T14:33:24.169Z,95751.00
2023-05-07T14:36:10.250Z,95750.00
2023-05-07T14:38:56.750Z,95748.00
2023-05-07T14:41:42.417Z,95743.00
2023-05-07T14:44:28.476Z,95745.00
2023-05-07T14:47:15.841Z,95746.00
2023-05-07T14:50:02.713Z,95750.00
2023-05-07T14:52:48.875Z,95753.00
2023-05-07T14:55:38.253Z,95754.00
2023-05-07T14:58:26.588Z,95761.00
2023-05-07T15:01:12.408Z,95766.00
2023-05-07T15:03:58.268Z,95770.00
2023-05-07T15:06:43.866Z,95770.00
2023-05-07T15:09:30.823Z,95767.00
2023-05-07T15:12:17.206Z,95764.00
2023-05-07T15:15:03.717Z,95768.00
2023-05-07T15:17:49.347Z,95769.00
2023-05-07T15:20:36.561Z,95772.00
2023-05-07T15:28:14.278Z,95791.00
2023-05-07T15:31:02.325Z,95786.00
2023-05-07T15:33:53.130Z,95786.00
2023-05-07T15:36:38.831Z,95800.00
2023-05-07T15:39:27.850Z,95808.00
2023-05-07T15:42:21.132Z,95823.00
2023-05-07T15:45:08.174Z,95837.00
2023-05-07T15:47:54.319Z,95839.00
2023-05-07T15:50:40.549Z,95847.00
2023-05-07T15:53:26.837Z,95855.00
2023-05-07T15:56:12.953Z,95867.00
2023-05-07T15:59:02.526Z,95882.00
2023-05-07T16:01:51.739Z,95888.00
2023-05-07T16:04:42.861Z,95892.00
2023-05-07T16:07:33.250Z,95884.00
2023-05-07T16:10:23.750Z,95898.00
2023-05-07T16:13:09.864Z,95894.00
2023-05-07T16:16:00.044Z,95904.00
2023-05-07T16:18:46.444Z,95905.00
2023-05-07T16:21:33.668Z,95899.00
2023-05-07T16:24:24.041Z,95900.00
2023-05-07T16:27:10.100Z,95911.00
2023-05-07T16:29:58.620Z,95916.00
2023-05-07T16:32:44.576Z,95927.00
2023-05-07T16:35:32.353Z,95929.00
2023-05-07T16:38:18.543Z,95938.00
2023-05-07T16:41:06.159Z,95940.00
2023-05-07T16:44:02.014Z,95935.00
2023-05-07T16:46:56.961Z,95922.00
2023-05-07T16:49:43.275Z,95903.00
2023-05-07T16:52:32.636Z,95917.00
2023-05-07T16:55:21.132Z,95941.00
2023-05-07T16:58:09.216Z,95949.00
2023-05-07T17:00:54.902Z,95962.00
2023-05-07T17:03:40.753Z,95970.00
2023-05-07T17:06:27.155Z,95978.00
2023-05-07T17:09:12.739Z,95972.00
2023-05-07T17:11:58.347Z,95945.00
2023-05-07T17:14:43.990Z,95921.00
2023-05-07T17:17:32.449Z,95915.00
2023-05-07T17:20:18.043Z,95908.00
2023-05-07T17:23:04.288Z,95896.00
2023-05-07T17:25:59.688Z,95907.00
2023-05-07T17:28:45.929Z,95904.00
2023-05-07T17:31:32.168Z,95906.00
2023-05-07T17:34:18.135Z,95896.00
2023-05-07T17:37:19.456Z,95891.00
2023-05-07T17:40:09.462Z,95897.00
2023-05-07T17:42:57.477Z,95885.00
2023-05-07T17:45:50.280Z,95894.00
2023-05-07T17:48:43.720Z,95883.00
2023-05-07T17:51:45.937Z,95889.00
2023-05-07T17:54:41.355Z,95894.00
2023-05-07T17:57:32.917Z,95898.00
2023-05-07T18:00:26.265Z,95903.00
2023-05-07T18:03:13.541Z,95905.00
2023-05-07T18:06:02.254Z,95918.00
2023-05-07T18:08:52.175Z,95924.00
2023-05-07T18:11:38.131Z,95925.00
2023-05-07T18:14:27.241Z,95938.00
2023-05-07T18:17:13.170Z,95944.00
2023-05-07T18:19:59.144Z,95955.00
2023-05-07T18:22:47.396Z,95963.00
2023-05-07T18:25:33.680Z,95974.00
2023-05-07T18:28:22.180Z,95976.00
2023-05-07T18:31:09.508Z,95985.00
2023-05-07T18:33:56.171Z,95989.00
2023-05-07T18:36:42.379Z,95991.00
2023-05-07T18:39:29.375Z,95993.00
2023-05-07T18:42:16.009Z,95985.00
2023-05-07T18:45:03.286Z,95995.00
2023-05-07T18:47:49.279Z,95987.00
2023-05-07T18:50:38.065Z,95994.00
2023-05-07T18:53:26.594Z,96008.00
2023-05-07T18:56:18.055Z,96002.00
2023-05-07T18:59:17.466Z,96000.00
2023-05-07T19:02:07.158Z,95997.00
2023-05-07T19:04:53.471Z,95996.00
2023-05-07T19:07:39.945Z,95993.00
2023-05-07T19:10:29.943Z,96003.00
2023-05-07T19:13:16.045Z,96011.00
2023-05-07T19:16:02.150Z,96013.00
2023-05-07T19:18:48.545Z,96008.00
2023-05-07T19:21:34.601Z,96014.00
2023-05-07T19:24:20.688Z,96023.00
2023-05-07T19:27:09.958Z,96020.00
2023-05-07T19:30:04.868Z,96020.00
2023-05-07T19:32:57.075Z,96030.00
2023-05-07T19:35:47.666Z,96028.00
2023-05-07T19:38:33.591Z,96026.00
2023-05-07T19:41:22.057Z,96033.00
2023-05-07T19:44:08.854Z,96047.00
2023-05-07T19:46:54.780Z,96049.00
2023-05-07T19:49:41.206Z,96054.00
2023-05-07T19:52:29.267Z,96070.00
2023-05-07T19:55:16.154Z,96067.00
2023-05-07T19:58:02.415Z,96075.00
2023-05-07T20:00:50.989Z,96074.00
2023-05-07T20:03:37.359Z,96085.00
2023-05-07T20:06:24.101Z,96084.00
2023-05-07T20:09:12.959Z,96097.00
2023-05-07T20:11:58.944Z,96111.00
2023-05-07T20:14:47.279Z,96118.00
2023-05-07T20:17:33.438Z,96118.00
2023-05-07T20:20:21.912Z,96125.00
2023-05-07T20:23:08.704Z,96128.00
2023-05-07T20:25:55.288Z,96116.00
2023-05-07T20:28:41.077Z,96116.00
2023-05-07T20:31:27.167Z,96117.00
2023-05-07T20:34:15.519Z,96120.00
2023-05-07T20:37:03.986Z,96120.00
2023-05-07T20:39:49.740Z,96114.00
2023-05-07T20:42:36.460Z,96122.00
2023-05-07T20:45:25.344Z,96117.00
2023-05-07T20:48:14.560Z,96125.00
2023-05-07T20:51:03.243Z,96122.00
2023-05-07T20:53:49.434Z,96122.00
2023-05-07T20:56:36.120Z,96126.00
2023-05-07T20:59:22.505Z,96133.00
2023-05-07T21:02:08.814Z,96134.00
2023-05-07T21:04:54.884Z,96128.00
2023-05-07T21:07:40.968Z,96136.00
2023-05-07T21:10:27.047Z,96132.00
2023-05-07T21:13:16.567Z,96129.00
2023-05-07T21:16:02.435Z,96140.00
2023-05-07T21:18:48.612Z,96127.00
2023-05-07T21:21:37.186Z,96135.00
2023-05-07T21:24:22.822Z,96134.00
2023-05-07T21:27:09.830Z,96134.00
2023-05-07T21:30:03.407Z,96130.00
2023-05-07T21:32:50.159Z,96136.00
2023-05-07T21:35:37.159Z,96132.00
2023-05-07T21:38:23.188Z,96136.00
2023-05-07T21:41:09.248Z,96141.00
2023-05-07T21:43:55.113Z,96135.00
2023-05-07T21:46:41.995Z,96133.00
2023-05-07T21:49:28.567Z,96141.00
2023-05-07T21:52:17.045Z,96135.00
2023-05-07T21:55:03.164Z,96135.00
2023-05-07T21:58:01.239Z,96136.00
2023-05-07T22:00:50.950Z,96138.00
2023-05-07T22:03:36.976Z,96139.00
2023-05-07T22:06:23.132Z,96132.00
2023-05-07T22:09:09.408Z,96127.00
2023-05-07T22:11:55.259Z,96125.00
2023-05-07T22:14:41.262Z,96119.00
2023-05-07T22:17:26.896Z,96129.00
2023-05-07T22:20:15.737Z,96129.00
2023-05-07T22:23:01.743Z,96121.00
2023-05-07T22:25:48.460Z,96125.00
2023-05-07T22:28:34.645Z,96127.00
2023-05-07T22:31:22.514Z,96136.00
2023-05-07T22:34:08.509Z,96137.00
2023-05-07T22:36:54.144Z,96135.00
2023-05-07T22:39:40.859Z,96134.00
2023-05-07T22:42:26.930Z,96141.00
2023-05-07T22:45:14.477Z,96142.00
2023-05-07T22:48:00.350Z,96142.00
2023-05-07T22:50:46.417Z,96144.00
2023-05-07T22:53:32.134Z,96145.00
2023-05-07T22:56:18.813Z,96144.00
2023-05-07T22:59:05.512Z,96143.00
2023-05-07T23:01:51.707Z,96143.00
2023-05-07T23:04:37.422Z,96145.00
2023-05-07T23:07:23.528Z,96147.00
2023-05-07T23:10:09.997Z,96157.00
2023-05-07T23:12:56.212Z,96147.00
2023-05-07T23:15:42.974Z,96146.00
2023-05-07T23:18:30.544Z,96150.00
2023-05-07T23:21:16.361Z,96153.00
2023-05-07T23:24:02.199Z,96145.00
2023-05-07T23:26:47.934Z,96151.00
2023-05-07T23:29:34.085Z,96153.00
2023-05-07T23:32:23.156Z,96154.00
2023-05-07T23:35:12.037Z,96158.00
2023-05-07T23:37:58.879Z,96153.00
2023-05-07T23:40:44.511Z,96136.00
2023-05-07T23:43:30.055Z,96141.00
2023-05-07T23:46:15.842Z,96144.00
2023-05-07T23:49:01.838Z,96137.00
2023-05-07T23:51:47.531Z,96137.00
2023-05-07T23:54:33.468Z,96135.00
2023-05-07T23:57:19.351Z,96138.00
